Time;durP1;ratioP1;P1;durP2;ratioP2;P2;SDS_P1;SDS_P2;PMS_P1;PMS_P2;Temp;Humidity;BMP_temperature;BMP_pressure;BME280_temperature;BME280_humidity;BME280_pressure;Samples;Min_cycle;Max_cycle;Signal;HPM_P1;HPM_P2
2023/09/08 00:01:45;;;;;;;20.40;9.35;;;;;;;18.90;100.00;101519.03;5073788;28;20037;-67
2023/09/08 00:04:11;;;;;;;20.38;8.77;;;;;;;18.89;100.00;101519.94;5073697;28;20025;-67
2023/09/08 00:06:37;;;;;;;22.05;8.98;;;;;;;18.79;100.00;101516.50;5073818;28;20037;-65
2023/09/08 00:09:03;;;;;;;21.75;9.23;;;;;;;18.70;100.00;101515.81;5073660;28;20130;-68
2023/09/08 00:11:28;;;;;;;21.15;9.93;;;;;;;18.66;100.00;101519.47;5069665;28;20032;-66
2023/09/08 00:13:54;;;;;;;21.25;10.10;;;;;;;18.65;100.00;101523.94;5073633;28;20033;-69
2023/09/08 00:16:19;;;;;;;21.42;9.85;;;;;;;18.60;100.00;101524.00;5073302;28;20491;-69
2023/09/08 00:18:45;;;;;;;21.13;10.13;;;;;;;18.42;100.00;101516.31;5073793;28;20016;-67
2023/09/08 00:21:10;;;;;;;23.05;10.40;;;;;;;18.32;100.00;101520.97;5073813;28;20025;-69
2023/09/08 00:23:35;;;;;;;20.95;9.82;;;;;;;18.34;100.00;101521.81;5073386;28;20402;-69
2023/09/08 00:26:01;;;;;;;21.63;10.60;;;;;;;18.24;100.00;101522.88;5073603;28;20033;-64
2023/09/08 00:28:27;;;;;;;20.38;10.30;;;;;;;18.25;100.00;101524.66;5073321;28;20055;-68
2023/09/08 00:30:52;;;;;;;21.70;10.40;;;;;;;18.30;100.00;101522.75;5073322;28;20038;-69
2023/09/08 00:33:17;;;;;;;21.35;10.00;;;;;;;18.28;100.00;101525.47;5072033;28;20025;-67
2023/09/08 00:35:48;;;;;;;19.77;9.43;;;;;;;18.24;100.00;101528.22;5073402;28;20028;-67
2023/09/08 00:38:14;;;;;;;20.95;10.05;;;;;;;18.22;100.00;101522.91;5073056;28;20029;-68
2023/09/08 00:40:39;;;;;;;21.02;10.32;;;;;;;18.09;100.00;101529.38;5073215;28;20024;-66
2023/09/08 00:43:04;;;;;;;22.70;10.05;;;;;;;18.05;100.00;101523.16;5088536;28;20053;-67
2023/09/08 00:45:30;;;;;;;20.63;9.60;;;;;;;17.92;100.00;101521.59;5073013;28;20056;-68
2023/09/08 00:47:56;;;;;;;20.15;9.60;;;;;;;17.83;100.00;101522.59;5073218;28;20043;-68
2023/09/08 00:50:21;;;;;;;22.08;9.93;;;;;;;17.83;100.00;101516.38;5072912;28;20035;-68
2023/09/08 00:52:47;;;;;;;22.48;9.75;;;;;;;17.83;100.00;101519.03;5072706;28;20063;-68
2023/09/08 00:55:12;;;;;;;21.60;10.50;;;;;;;17.80;100.00;101519.09;5073109;28;20036;-68
2023/09/08 00:57:38;;;;;;;21.60;10.25;;;;;;;17.84;100.00;101523.47;5072987;28;20035;-69
2023/09/08 01:00:05;;;;;;;22.63;10.50;;;;;;;17.76;100.00;101513.75;5072731;28;20467;-68
2023/09/08 01:02:31;;;;;;;21.73;10.48;;;;;;;17.80;100.00;101511.06;5073100;28;20032;-68
2023/09/08 01:04:59;;;;;;;23.58;10.55;;;;;;;17.68;100.00;101518.38;5072583;28;20024;-66
2023/09/08 01:07:27;;;;;;;21.08;10.57;;;;;;;17.60;100.00;101520.25;5072681;28;20106;-68
2023/09/08 01:09:53;;;;;;;21.45;10.48;;;;;;;17.54;100.00;101515.88;5072797;28;20061;-68
2023/09/08 01:12:19;;;;;;;20.88;10.40;;;;;;;17.57;100.00;101512.28;5072568;28;20460;-67
2023/09/08 01:14:44;;;;;;;21.67;9.95;;;;;;;17.50;100.00;101513.28;5072719;28;20028;-68
2023/09/08 01:17:12;;;;;;;20.90;10.77;;;;;;;17.57;100.00;101515.81;5072949;28;20039;-68
2023/09/08 01:19:38;;;;;;;21.15;9.85;;;;;;;17.51;100.00;101515.03;5072866;28;20124;-68
2023/09/08 01:22:21;;;;;;;22.38;10.43;;;;;;;17.45;100.00;101520.47;5072533;28;20056;-68
2023/09/08 01:25:09;;;;;;;21.10;10.60;;;;;;;17.38;100.00;101515.19;5072566;28;20529;-68
2023/09/08 01:27:37;;;;;;;26.10;10.40;;;;;;;17.27;100.00;101522.50;5072532;28;20024;-67
2023/09/08 01:30:05;;;;;;;23.73;10.52;;;;;;;17.28;100.00;101528.72;5072703;28;20029;-68
2023/09/08 01:32:31;;;;;;;23.17;10.65;;;;;;;17.21;100.00;101519.88;5068470;28;20040;-68
2023/09/08 01:34:59;;;;;;;20.70;10.18;;;;;;;17.09;100.00;101523.59;5072431;28;20033;-67
2023/09/08 01:37:25;;;;;;;21.85;10.60;;;;;;;17.07;100.00;101522.72;5072551;28;20097;-67
2023/09/08 01:39:50;;;;;;;21.85;11.10;;;;;;;17.02;100.00;101521.88;5072354;28;20772;-68
2023/09/08 01:42:16;;;;;;;21.67;10.68;;;;;;;16.99;100.00;101527.25;5072413;28;20120;-68
2023/09/08 01:44:41;;;;;;;21.13;10.70;;;;;;;16.98;100.00;101526.41;5072342;28;20044;-67
2023/09/08 01:47:07;;;;;;;20.60;10.60;;;;;;;17.00;100.00;101521.91;5088219;28;20037;-68
2023/09/08 01:49:32;;;;;;;21.95;11.10;;;;;;;16.98;100.00;101529.06;5087952;28;20108;-68
2023/09/08 01:51:57;;;;;;;20.50;10.73;;;;;;;16.88;100.00;101528.28;5072325;28;20020;-67
2023/09/08 01:54:23;;;;;;;22.95;10.75;;;;;;;16.87;100.00;101522.91;5071067;28;20039;-68
2023/09/08 01:56:48;;;;;;;22.45;11.77;;;;;;;16.86;100.00;101524.72;5072194;28;20035;-68
2023/09/08 01:59:14;;;;;;;22.63;12.43;;;;;;;16.86;100.00;101516.72;5072479;28;20075;-69
2023/09/08 02:01:40;;;;;;;21.17;11.38;;;;;;;16.85;100.00;101514.06;5073160;28;20520;-69
2023/09/08 02:04:05;;;;;;;22.05;11.13;;;;;;;16.79;100.00;101523.00;5075987;28;20039;-65
2023/09/08 02:06:30;;;;;;;21.45;10.63;;;;;;;16.81;100.00;101523.00;5076191;28;20081;-69
2023/09/08 02:08:56;;;;;;;21.58;11.30;;;;;;;16.68;100.00;101523.09;5075930;28;20024;-70
2023/09/08 02:11:21;;;;;;;22.08;11.30;;;;;;;16.69;100.00;101518.69;5074871;28;20480;-70
2023/09/08 02:13:46;;;;;;;21.58;11.20;;;;;;;16.62;100.00;101523.19;5075792;28;20101;-69
2023/09/08 02:16:16;;;;;;;22.17;11.80;;;;;;;16.64;100.00;101520.50;5075742;28;20127;-69
2023/09/08 02:18:45;;;;;;;22.42;11.32;;;;;;;16.58;100.00;101525.91;5075911;28;20029;-69
2023/09/08 02:21:10;;;;;;;22.73;11.57;;;;;;;16.50;100.00;101517.97;5075633;28;20028;-69
2023/09/08 02:23:36;;;;;;;20.58;9.95;;;;;;;16.49;100.00;101517.06;5075777;28;20380;-69
2023/09/08 02:26:01;;;;;;;21.52;10.95;;;;;;;16.50;100.00;101517.97;5075871;28;20495;-69
2023/09/08 02:28:27;;;;;;;21.83;10.70;;;;;;;16.44;100.00;101513.59;5075491;28;20039;-70
2023/09/08 02:30:52;;;;;;;22.35;10.88;;;;;;;16.47;100.00;101517.97;5074211;28;20028;-70
2023/09/08 02:33:18;;;;;;;23.00;11.05;;;;;;;16.39;100.00;101510.94;5075653;28;20033;-69
2023/09/08 02:35:43;;;;;;;23.27;12.63;;;;;;;16.35;100.00;101502.97;5075458;28;20047;-70
2023/09/08 02:38:08;;;;;;;22.50;11.48;;;;;;;16.34;100.00;101511.91;5075456;28;20055;-69
2023/09/08 02:40:34;;;;;;;20.98;10.23;;;;;;;16.24;100.00;101505.75;5075631;28;20024;-70
2023/09/08 02:43:02;;;;;;;20.67;10.45;;;;;;;16.18;100.00;101511.16;5071148;28;20040;-69
2023/09/08 02:45:28;;;;;;;21.80;10.68;;;;;;;16.15;100.00;101503.13;5075169;28;20032;-68
2023/09/08 02:47:54;;;;;;;21.60;11.10;;;;;;;16.10;100.00;101510.31;5075412;28;20035;-68
2023/09/08 02:50:20;;;;;;;21.05;10.60;;;;;;;16.10;100.00;101507.63;5075216;28;20029;-63
2023/09/08 02:52:45;;;;;;;22.92;11.70;;;;;;;16.06;100.00;101513.88;5074972;28;20063;-67
2023/09/08 02:55:11;;;;;;;21.75;11.30;;;;;;;16.01;100.00;101514.81;5075554;28;20052;-66
2023/09/08 02:57:37;;;;;;;22.10;11.43;;;;;;;15.99;100.00;101513.94;5075157;28;20060;-67
2023/09/08 03:00:04;;;;;;;21.83;11.75;;;;;;;15.91;100.00;101512.22;5074979;28;20037;-67
2023/09/08 03:02:30;;;;;;;22.45;12.07;;;;;;;15.89;100.00;101512.25;5071412;28;20040;-66
2023/09/08 03:04:56;;;;;;;21.58;12.38;;;;;;;15.99;100.00;101508.63;5074838;28;20025;-66
2023/09/08 03:07:22;;;;;;;22.67;11.82;;;;;;;15.99;100.00;101513.94;5075047;28;20078;-66
2023/09/08 03:09:47;;;;;;;21.55;10.85;;;;;;;15.94;100.00;101513.09;5075028;28;20027;-68
2023/09/08 03:12:12;;;;;;;20.70;10.20;;;;;;;15.93;100.00;101514.00;5074922;28;20082;-67
2023/09/08 03:14:38;;;;;;;22.05;10.93;;;;;;;15.84;100.00;101508.72;5074091;28;20032;-67
2023/09/08 03:17:03;;;;;;;22.20;12.07;;;;;;;15.77;100.00;101507.84;5074599;28;20063;-66
2023/09/08 03:19:29;;;;;;;22.08;11.35;;;;;;;15.73;100.00;101516.75;5074944;28;20468;-67
2023/09/08 03:21:54;;;;;;;21.98;11.50;;;;;;;15.63;100.00;101515.06;5074803;28;20068;-67
2023/09/08 03:24:19;;;;;;;22.52;11.43;;;;;;;15.64;100.00;101515.03;5074441;28;20024;-68
2023/09/08 03:26:45;;;;;;;20.83;10.68;;;;;;;15.70;100.00;101514.13;5074613;28;20032;-67
2023/09/08 03:29:10;;;;;;;21.48;11.60;;;;;;;15.61;100.00;101512.41;5074568;28;20024;-68
2023/09/08 03:31:36;;;;;;;21.92;12.20;;;;;;;15.64;100.00;101509.72;5074430;28;20059;-67
2023/09/08 03:34:01;;;;;;;22.67;12.15;;;;;;;15.64;100.00;101508.81;5074295;28;20068;-69
2023/09/08 03:36:27;;;;;;;21.50;11.90;;;;;;;15.64;100.00;101515.03;5074658;28;20071;-67
2023/09/08 03:38:52;;;;;;;21.50;11.10;;;;;;;15.56;100.00;101505.31;5074368;28;20032;-66
2023/09/08 03:41:17;;;;;;;22.08;11.70;;;;;;;15.52;100.00;101510.66;5074177;28;20025;-68
2023/09/08 03:43:43;;;;;;;22.42;11.55;;;;;;;15.54;100.00;101518.66;5074308;28;20040;-69
2023/09/08 03:46:08;;;;;;;21.88;11.95;;;;;;;15.43;100.00;101505.38;5074431;28;20033;-68
2023/09/08 03:48:33;;;;;;;22.80;11.93;;;;;;;15.36;100.00;101508.97;5074570;28;20479;-66
2023/09/08 03:50:59;;;;;;;22.30;12.07;;;;;;;15.33;100.00;101506.31;5074273;28;20028;-66
2023/09/08 03:53:24;;;;;;;23.27;12.85;;;;;;;15.34;100.00;101497.44;5072626;28;20060;-67
2023/09/08 03:55:50;;;;;;;21.80;11.55;;;;;;;15.36;100.00;101503.63;5089709;28;20025;-68
2023/09/08 03:58:15;;;;;;;21.77;11.68;;;;;;;15.37;100.00;101500.09;5074110;28;20491;-68
2023/09/08 04:00:41;;;;;;;22.50;11.63;;;;;;;15.44;100.00;101501.81;5073746;28;20024;-67
2023/09/08 04:03:07;;;;;;;23.10;11.98;;;;;;;15.40;100.00;101497.41;5073949;28;20032;-67
2023/09/08 04:05:32;;;;;;;23.20;11.73;;;;;;;15.49;100.00;101497.38;5073612;28;20036;-68
2023/09/08 04:07:58;;;;;;;21.77;11.75;;;;;;;15.48;100.00;101498.25;5073619;28;20119;-66
2023/09/08 04:10:23;;;;;;;23.38;12.10;;;;;;;15.40;100.00;101502.72;5073772;28;20059;-63
2023/09/08 04:12:48;;;;;;;22.80;12.15;;;;;;;15.39;100.00;101500.06;5073514;28;20036;-68
2023/09/08 04:15:14;;;;;;;25.48;12.70;;;;;;;15.29;100.00;101497.47;5073518;28;20089;-67
2023/09/08 04:17:39;;;;;;;23.27;12.68;;;;;;;15.28;100.00;101498.34;5073708;28;20158;-68
2023/09/08 04:20:05;;;;;;;21.17;12.23;;;;;;;15.26;100.00;101496.56;5073490;28;20052;-65
2023/09/08 04:22:32;;;;;;;22.52;12.43;;;;;;;15.22;100.00;101498.38;5069497;28;20075;-67
2023/09/08 04:24:57;;;;;;;22.90;12.00;;;;;;;15.21;100.00;101496.59;5073581;28;20029;-66
2023/09/08 04:27:23;;;;;;;22.80;12.05;;;;;;;15.19;100.00;101495.75;5073276;28;20025;-65
2023/09/08 04:29:49;;;;;;;24.33;12.27;;;;;;;15.14;100.00;101486.88;5073754;28;20028;-67
2023/09/08 04:32:14;;;;;;;23.55;12.50;;;;;;;15.14;100.00;101489.53;5073186;28;20035;-64
2023/09/08 04:34:41;;;;;;;24.40;13.00;;;;;;;15.10;100.00;101490.44;5073152;28;20036;-64
2023/09/08 04:37:07;;;;;;;22.45;12.05;;;;;;;15.13;100.00;101485.09;5073335;28;20040;-67
2023/09/08 04:39:33;;;;;;;23.63;12.23;;;;;;;15.11;100.00;101489.56;5073069;28;20464;-66
2023/09/08 04:41:59;;;;;;;23.38;13.23;;;;;;;15.13;100.00;101501.06;5071687;28;20434;-68
2023/09/08 04:44:24;;;;;;;24.70;13.35;;;;;;;15.11;100.00;101495.75;5088675;28;20072;-67
2023/09/08 04:46:51;;;;;;;25.25;13.70;;;;;;;15.14;100.00;101500.19;5072983;28;20514;-66
2023/09/08 04:49:16;;;;;;;24.98;13.60;;;;;;;15.20;100.00;101496.63;5073274;28;20391;-66
2023/09/08 04:51:42;;;;;;;23.60;12.70;;;;;;;15.07;100.00;101495.78;5073273;28;20107;-66
2023/09/08 04:54:08;;;;;;;24.67;13.27;;;;;;;15.09;100.00;101504.66;5071567;28;20039;-69
2023/09/08 04:56:33;;;;;;;24.20;12.73;;;;;;;15.07;100.00;101504.66;5071605;28;20115;-67
2023/09/08 04:59:00;;;;;;;24.02;14.07;;;;;;;14.97;100.00;101501.16;5072979;28;20028;-68
2023/09/08 05:01:26;;;;;;;23.52;13.32;;;;;;;14.97;100.00;101508.25;5072765;28;20554;-68
2023/09/08 05:03:51;;;;;;;24.48;12.85;;;;;;;15.01;100.00;101507.34;5071358;28;20120;-68
2023/09/08 05:06:17;;;;;;;24.10;13.70;;;;;;;14.96;100.00;101504.69;5072815;28;20056;-69
2023/09/08 05:08:43;;;;;;;23.38;12.55;;;;;;;14.92;100.00;101502.06;5072971;28;20070;-68
2023/09/08 05:11:09;;;;;;;23.42;13.75;;;;;;;14.93;100.00;101499.38;5072572;28;20501;-68
2023/09/08 05:13:34;;;;;;;22.33;12.35;;;;;;;14.96;100.00;101503.81;5088550;28;20041;-66
2023/09/08 05:16:10;;;;;;;22.40;11.88;;;;;;;15.02;100.00;101513.56;5072521;28;20038;-63
2023/09/08 05:18:35;;;;;;;22.80;12.57;;;;;;;15.02;100.00;101506.44;5072732;28;20020;-64
2023/09/08 05:21:01;;;;;;;23.58;14.23;;;;;;;15.03;100.00;101510.91;5068653;28;20055;-68
2023/09/08 05:23:26;;;;;;;23.15;13.48;;;;;;;15.07;100.00;101509.09;5069204;28;20029;-68
2023/09/08 05:25:51;;;;;;;22.83;12.95;;;;;;;15.09;100.00;101512.66;5070211;28;20036;-68
2023/09/08 05:28:17;;;;;;;26.05;14.15;;;;;;;15.14;100.00;101518.81;5072834;28;20090;-64
2023/09/08 05:30:42;;;;;;;24.55;13.85;;;;;;;15.16;100.00;101509.06;5072435;28;20483;-62
2023/09/08 05:33:07;;;;;;;23.98;14.50;;;;;;;15.22;100.00;101511.72;5072282;28;20120;-63
2023/09/08 05:35:33;;;;;;;24.80;15.10;;;;;;;15.27;100.00;101514.34;5072349;28;20441;-63
2023/09/08 05:37:58;;;;;;;26.70;14.65;;;;;;;15.36;100.00;101513.41;5075262;28;20437;-65
2023/09/08 05:40:24;;;;;;;25.55;14.60;;;;;;;15.30;100.00;101515.22;5092263;28;20021;-61
2023/09/08 05:42:49;;;;;;;25.67;14.30;;;;;;;15.34;100.00;101516.97;5075085;28;20104;-64
2023/09/08 05:45:15;;;;;;;25.40;14.65;;;;;;;15.33;100.00;101511.63;5076367;28;20467;-65
2023/09/08 05:47:40;;;;;;;25.65;14.65;;;;;;;15.46;100.00;101515.13;5092073;28;20538;-66
2023/09/08 05:50:06;;;;;;;25.35;14.82;;;;;;;15.55;100.00;101523.06;5075919;28;20029;-67
2023/09/08 05:52:33;;;;;;;25.48;14.73;;;;;;;15.66;100.00;101525.69;5076061;28;20033;-67
2023/09/08 05:54:58;;;;;;;25.38;14.70;;;;;;;15.72;100.00;101530.09;5076811;28;21062;-70
2023/09/08 05:57:24;;;;;;;24.30;14.25;;;;;;;15.78;100.00;101527.38;5075869;28;20033;-67
2023/09/08 05:59:49;;;;;;;24.90;13.93;;;;;;;15.92;100.00;101517.56;5076147;28;20103;-65
2023/09/08 06:02:14;;;;;;;27.30;14.27;;;;;;;16.01;100.00;101514.81;5075936;28;20375;-65
2023/09/08 06:04:40;;;;;;;26.83;14.90;;;;;;;16.15;100.00;101522.72;5075900;28;20059;-66
2023/09/08 06:07:05;;;;;;;24.58;13.88;;;;;;;16.29;100.00;101516.38;5075676;28;20033;-67
2023/09/08 06:09:31;;;;;;;26.35;14.88;;;;;;;16.34;100.00;101520.78;5076238;28;20111;-66
2023/09/08 06:11:57;;;;;;;23.98;14.02;;;;;;;16.48;100.00;101533.09;5075642;28;20035;-63
2023/09/08 06:14:22;;;;;;;25.38;14.48;;;;;;;16.59;100.00;101531.22;5075303;28;20105;-63
2023/09/08 06:16:47;;;;;;;23.70;14.50;;;;;;;16.69;100.00;101532.91;5075884;28;20051;-65
2023/09/08 06:19:13;;;;;;;25.17;14.65;;;;;;;16.80;100.00;101538.09;5075584;28;20032;-66
2023/09/08 06:21:38;;;;;;;24.52;14.43;;;;;;;16.90;100.00;101537.13;5076008;28;20455;-67
2023/09/08 06:24:04;;;;;;;26.10;14.77;;;;;;;16.94;100.00;101538.00;5075492;28;20040;-65
2023/09/08 06:26:29;;;;;;;26.90;15.95;;;;;;;17.02;100.00;101544.16;5075058;28;20115;-65
2023/09/08 06:28:54;;;;;;;27.10;15.43;;;;;;;17.11;100.00;101537.81;5091421;28;20028;-64
2023/09/08 06:31:20;;;;;;;27.25;15.05;;;;;;;17.18;100.00;101539.53;5075294;28;20036;-65
2023/09/08 06:33:45;;;;;;;26.88;16.67;;;;;;;17.31;100.00;101539.34;5075484;28;20029;-64
2023/09/08 06:36:10;;;;;;;26.55;17.17;;;;;;;17.41;100.00;101533.84;5075483;28;20124;-64
2023/09/08 06:38:36;;;;;;;27.23;15.90;;;;;;;17.50;100.00;101531.97;5090577;28;20039;-64
2023/09/08 06:41:08;;;;;;;26.67;17.00;;;;;;;17.59;100.00;101531.84;5075172;28;20066;-64
2023/09/08 06:43:33;;;;;;;27.75;17.42;;;;;;;17.64;100.00;101538.03;5071024;28;20053;-66
2023/09/08 06:45:58;;;;;;;26.98;16.60;;;;;;;17.74;100.00;101541.44;5075447;28;20032;-64
2023/09/08 06:48:24;;;;;;;26.50;17.10;;;;;;;17.78;100.00;101546.72;5074947;28;20043;-65
2023/09/08 06:50:54;;;;;;;27.15;17.05;;;;;;;17.88;100.00;101543.91;5074937;28;20433;-64
2023/09/08 06:53:19;;;;;;;26.05;17.08;;;;;;;17.96;100.00;101541.19;5074886;28;20024;-62
2023/09/08 06:55:44;;;;;;;26.13;16.23;;;;;;;18.02;100.00;101538.41;5074888;28;20461;-61
2023/09/08 06:58:10;;;;;;;25.90;16.65;;;;;;;18.04;100.00;101545.50;5075398;28;20029;-64
2023/09/08 07:00:35;;;;;;;26.90;17.50;;;;;;;18.11;100.00;101547.16;5074829;28;20063;-61
2023/09/08 07:03:01;;;;;;;25.70;17.08;;;;;;;18.17;100.00;101548.84;5074321;28;20115;-64
2023/09/08 07:05:27;;;;;;;27.45;16.35;;;;;;;18.29;100.00;101545.97;5074771;28;20494;-62
2023/09/08 07:07:52;;;;;;;25.75;16.15;;;;;;;18.40;100.00;101545.78;5074772;28;20024;-63
2023/09/08 07:10:18;;;;;;;24.65;16.17;;;;;;;18.52;100.00;101542.00;5074690;28;20723;-63
2023/09/08 07:12:43;;;;;;;25.58;15.70;;;;;;;18.65;100.00;101545.34;5074831;28;20037;-62
2023/09/08 07:15:09;;;;;;;26.83;16.20;;;;;;;18.78;100.00;101554.91;5074171;28;21037;-62
2023/09/08 07:17:34;;;;;;;26.00;15.50;;;;;;;18.89;100.00;101544.06;5074670;28;20048;-61
2023/09/08 07:19:59;;;;;;;24.90;15.07;;;;;;;18.96;100.00;101550.16;5073254;28;20025;-61
2023/09/08 07:22:25;;;;;;;24.27;15.02;;;;;;;19.07;100.00;101553.50;5074220;28;20032;-62
2023/09/08 07:24:50;;;;;;;24.10;15.77;;;;;;;19.14;100.00;101549.78;5074790;28;20155;-61
2023/09/08 07:27:16;;;;;;;25.70;15.20;;;;;;;19.26;100.00;101556.69;5072690;28;20082;-60
2023/09/08 07:29:41;;;;;;;24.88;14.25;;;;;;;19.39;100.00;101556.47;5074524;28;20531;-67
2023/09/08 07:32:07;;;;;;;23.98;13.90;;;;;;;19.47;100.00;101552.69;5074521;28;20099;-63
2023/09/08 07:34:32;;;;;;;24.13;14.35;;;;;;;19.61;100.00;101560.41;5074268;28;20067;-64
2023/09/08 07:36:59;;;;;;;25.95;13.95;;;;;;;19.70;100.00;101548.59;5074152;28;20060;-63
2023/09/08 07:39:24;;;;;;;23.25;12.93;;;;;;;19.80;100.00;101555.56;5073888;28;20032;-62
2023/09/08 07:41:50;;;;;;;22.92;12.88;;;;;;;19.89;100.00;101553.59;5074457;28;20078;-62
2023/09/08 07:44:15;;;;;;;23.55;12.45;;;;;;;20.00;100.00;101551.53;5074037;28;20136;-67
2023/09/08 07:46:40;;;;;;;24.73;12.68;;;;;;;20.09;100.00;101545.94;5074567;28;20025;-66
2023/09/08 07:49:06;;;;;;;23.27;12.75;;;;;;;20.23;100.00;101547.41;5074139;28;20064;-64
2023/09/08 07:51:31;;;;;;;23.40;12.35;;;;;;;20.27;100.00;101550.00;5074133;28;20031;-65
2023/09/08 07:53:56;;;;;;;22.00;11.88;;;;;;;20.42;100.00;101548.72;5074076;28;20116;-63
2023/09/08 07:56:22;;;;;;;23.70;12.23;;;;;;;20.55;100.00;101544.78;5074000;28;20512;-64
2023/09/08 07:58:47;;;;;;;23.35;12.13;;;;;;;20.76;100.00;101537.09;5073814;28;20467;-64
2023/09/08 08:01:14;;;;;;;23.33;12.05;;;;;;;20.88;100.00;101541.25;5073766;28;20093;-67
2023/09/08 08:03:39;;;;;;;21.30;11.30;;;;;;;20.98;100.00;101541.88;5073794;28;20052;-63
2023/09/08 08:06:05;;;;;;;21.15;11.30;;;;;;;21.08;100.00;101535.31;5073833;28;20045;-65
2023/09/08 08:08:31;;;;;;;21.33;10.52;;;;;;;21.18;100.00;101534.13;5073921;28;20099;-64
2023/09/08 08:10:56;;;;;;;21.92;10.85;;;;;;;21.29;100.00;101535.63;5073602;28;20481;-67
2023/09/08 08:13:21;;;;;;;21.52;10.40;;;;;;;21.37;100.00;101530.91;5089582;28;20043;-68
2023/09/08 08:15:47;;;;;;;21.13;10.32;;;;;;;21.45;100.00;101541.44;5073569;28;20025;-65
2023/09/08 08:18:13;;;;;;;21.25;10.02;;;;;;;21.60;100.00;101538.31;5089139;28;20090;-61
2023/09/08 08:20:38;;;;;;;20.73;9.90;;;;;;;21.76;100.00;101536.03;5073705;28;20060;-63
2023/09/08 08:23:05;;;;;;;20.23;9.32;;;;;;;22.04;100.00;101536.00;5073315;28;20032;-66
2023/09/08 08:25:31;;;;;;;20.38;9.13;;;;;;;22.14;100.00;101541.09;5073405;28;20040;-68
2023/09/08 08:27:58;;;;;;;20.02;9.55;;;;;;;22.22;100.00;101539.91;5071653;28;20028;-62
2023/09/08 08:30:24;;;;;;;20.05;9.02;;;;;;;22.26;100.00;101540.69;5074376;28;20054;-61
2023/09/08 08:32:51;;;;;;;20.40;9.15;;;;;;;22.38;100.00;101540.31;5073097;28;20433;-61
2023/09/08 08:35:16;;;;;;;20.30;8.60;;;;;;;22.54;100.00;101539.78;5071868;28;20475;-62
2023/09/08 08:37:42;;;;;;;19.88;9.02;;;;;;;22.84;100.00;101542.31;5064478;28;20036;-61
2023/09/08 08:40:11;;;;;;;20.40;9.13;;;;;;;23.41;100.00;101549.19;5069172;28;20035;-61
2023/09/08 08:42:36;;;;;;;19.80;9.15;;;;;;;23.72;100.00;101553.41;5068247;28;20024;-68
2023/09/08 08:45:03;;;;;;;20.55;8.70;;;;;;;23.83;100.00;101559.25;5064545;28;20052;-65
2023/09/08 08:47:30;;;;;;;20.05;8.70;;;;;;;24.01;100.00;101548.69;5072772;28;20040;-61
2023/09/08 08:50:00;;;;;;;20.00;8.55;;;;;;;24.76;100.00;101552.75;5072559;28;20021;-67
2023/09/08 08:52:26;;;;;;;18.95;8.30;;;;;;;25.61;100.00;101546.19;5072611;28;20036;-66
2023/09/08 08:54:52;;;;;;;21.58;8.50;;;;;;;26.69;100.00;101554.41;5072611;28;20037;-68
2023/09/08 08:57:18;;;;;;;19.92;8.30;;;;;;;27.60;100.00;101543.22;5072720;28;20025;-69
2023/09/08 08:59:44;;;;;;;20.55;8.10;;;;;;;27.99;100.00;101539.22;5066366;28;20085;-67
2023/09/08 09:02:11;;;;;;;19.65;7.95;;;;;;;28.64;100.00;101547.13;5067755;28;20021;-68
2023/09/08 09:04:38;;;;;;;19.17;7.57;;;;;;;29.42;100.00;101548.69;5067822;28;20036;-68
2023/09/08 09:07:06;;;;;;;19.10;7.47;;;;;;;29.81;100.00;101547.06;5072325;28;20092;-61
2023/09/08 09:09:31;;;;;;;19.70;7.68;;;;;;;30.15;100.00;101546.69;5067828;28;20013;-61
2023/09/08 09:11:57;;;;;;;18.50;7.25;;;;;;;30.75;100.00;101551.63;5070496;28;20043;-70
2023/09/08 09:14:23;;;;;;;19.27;7.85;;;;;;;30.68;100.00;101549.44;5071333;28;20182;-66
2023/09/08 09:16:49;;;;;;;19.38;7.40;;;;;;;31.15;90.65;101552.53;5074000;28;20028;-61
2023/09/08 09:19:27;;;;;;;18.80;7.10;;;;;;;31.34;88.84;101552.09;5072588;28;20035;-65
2023/09/08 09:21:54;;;;;;;17.88;7.35;;;;;;;31.57;88.68;101551.31;5072344;28;20102;-64
2023/09/08 09:24:32;;;;;;;18.58;7.20;;;;;;;31.55;95.21;101552.38;5072547;28;20103;-63
2023/09/08 09:26:58;;;;;;;20.55;7.20;;;;;;;31.50;78.90;101547.28;5072477;28;20075;-62
2023/09/08 09:29:24;;;;;;;18.17;6.95;;;;;;;31.79;81.09;101545.13;5068763;28;20050;-63
2023/09/08 09:32:04;;;;;;;18.33;7.40;;;;;;;31.92;85.76;101542.34;5067689;28;20132;-74
2023/09/08 09:34:29;;;;;;;18.95;7.53;;;;;;;31.32;78.54;101544.00;5066474;28;20474;-65
2023/09/08 09:36:55;;;;;;;19.05;7.15;;;;;;;31.01;83.68;101543.50;5066841;28;20439;-69
2023/09/08 09:39:22;;;;;;;19.05;7.13;;;;;;;30.81;86.10;101542.13;5072076;28;20057;-67
2023/09/08 09:41:48;;;;;;;19.30;7.25;;;;;;;30.97;86.87;101541.06;5072260;28;20024;-71
2023/09/08 09:44:14;;;;;;;17.08;7.10;;;;;;;31.74;81.02;101550.06;5072173;28;20064;-74
2023/09/08 09:46:44;;;;;;;17.98;7.05;;;;;;;32.90;75.02;101563.16;5068301;28;20040;-64
2023/09/08 09:49:12;;;;;;;17.33;7.03;;;;;;;33.75;66.37;101550.00;5068184;28;20380;-62
2023/09/08 09:51:43;;;;;;;17.05;6.95;;;;;;;33.74;68.69;101549.09;5071610;28;20039;-65
2023/09/08 09:54:08;;;;;;;18.90;7.30;;;;;;;34.31;60.02;101540.72;5072168;28;20031;-68
2023/09/08 09:56:34;;;;;;;17.08;6.88;;;;;;;35.16;62.07;101552.59;5072025;28;20028;-67
2023/09/08 09:59:03;;;;;;;17.98;6.82;;;;;;;35.51;58.78;101552.16;5067968;28;20028;-68
2023/09/08 10:01:29;;;;;;;16.98;6.60;;;;;;;36.26;54.16;101548.97;5072263;28;20071;-69
2023/09/08 10:03:55;;;;;;;16.55;6.40;;;;;;;36.78;54.49;101548.69;5071662;28;20033;-71
2023/09/08 10:06:23;;;;;;;17.50;6.57;;;;;;;36.91;49.84;101551.97;5071992;28;20035;-72
2023/09/08 10:08:50;;;;;;;18.63;6.78;;;;;;;36.75;48.32;101543.44;5072200;28;20029;-64
2023/09/08 10:11:21;;;;;;;19.73;6.72;;;;;;;36.62;48.57;101541.00;5071915;28;20029;-69
2023/09/08 10:13:50;;;;;;;16.65;6.60;;;;;;;36.95;48.42;101545.16;5072147;28;20032;-69
2023/09/08 10:16:19;;;;;;;17.83;6.50;;;;;;;37.15;50.13;101545.97;5072390;28;20028;-70
2023/09/08 10:18:47;;;;;;;17.58;6.50;;;;;;;38.19;45.61;101546.69;5072147;28;20028;-70
2023/09/08 10:21:13;;;;;;;18.35;6.68;;;;;;;38.64;44.58;101539.31;5071957;28;20036;-70
2023/09/08 10:23:47;;;;;;;16.95;6.50;;;;;;;38.98;44.01;101542.16;5074866;28;20382;-69
2023/09/08 10:26:16;;;;;;;17.05;6.45;;;;;;;39.28;43.56;101545.47;5075775;28;20091;-70
2023/09/08 10:28:42;;;;;;;16.63;6.50;;;;;;;39.89;41.16;101543.44;5075618;28;20518;-70
2023/09/08 10:31:08;;;;;;;17.25;6.57;;;;;;;40.38;41.19;101541.75;5075813;28;20025;-69
2023/09/08 10:33:35;;;;;;;17.27;6.38;;;;;;;40.26;39.49;101547.63;5070117;28;20055;-64
2023/09/08 10:36:04;;;;;;;16.55;6.43;;;;;;;39.93;39.13;101549.47;5065821;28;20042;-62
2023/09/08 10:38:34;;;;;;;16.83;6.63;;;;;;;39.71;40.78;101542.69;5075128;28;20021;-63
2023/09/08 10:41:22;;;;;;;16.50;6.10;;;;;;;40.77;42.16;101543.84;5075511;28;20028;-65
2023/09/08 10:44:00;;;;;;;15.38;6.30;;;;;;;41.00;39.01;101545.91;5072690;28;20487;-67
2023/09/08 10:46:28;;;;;;;15.75;6.28;;;;;;;41.08;37.74;101538.44;5073058;28;20044;-64
2023/09/08 10:48:54;;;;;;;17.33;6.20;;;;;;;41.73;37.44;101541.09;5062111;28;20025;-63
2023/09/08 10:51:22;;;;;;;17.90;6.50;;;;;;;42.19;34.84;101532.84;5073860;28;20033;-62
2023/09/08 10:53:49;;;;;;;16.23;6.18;;;;;;;41.88;36.58;101539.28;5075379;28;20040;-63
2023/09/08 10:56:15;;;;;;;17.40;6.10;;;;;;;42.43;35.84;101530.91;5074919;28;20029;-65
2023/09/08 10:58:42;;;;;;;16.50;6.18;;;;;;;42.76;34.76;101527.81;5074838;28;20372;-67
2023/09/08 11:01:12;;;;;;;16.67;6.57;;;;;;;42.88;34.84;101536.56;5075093;28;20035;-69